If you wish to contribute or participate in the discussions about articles you are invited to join SKYbrary as a registered user

 Actions

Saint-Yan Airport

From SKYbrary Wiki

LFLN
Airport
ICAO: LFLN
Summary
Name Saint-Yan Airport
Region Europe
Territory France FR.gif
Location , Bourgogne
Serving St.-yan
Elevation 242.621 m
796 ft
796 ft242.621 m
Type medium airport
Coordinates 46° 24' 45.13" N, 4° 0' 47.75" E
Runways
Designator Length Width Surface ROPS
15L/33R 2030 m6,660.105 ft
45 m147.638 ft
CON /
15R/33L 1500 m4,921.26 ft
30 m98.425 ft
CON /


METAR
Observation LFLN 252130Z AUTO 24013KT 200V270 9999 BKN039 OVC050 08/02 Q1008 TEMPO 28020G35KT 4500 SHRA SCT020CB
Station Saint-Yan
Date/Time 25 February 2020 21:30:00
Wind direction 240°
Wind speed 13 kts
Lowest cloud amount broken clouds
Temperature 8°C
Dew point 2°C
Humidity 65%
QNH 1008 hPa
Weather condition n/a